Phoenix, Arizona
Traffic Map
Current Weather Conditions
Phoenix, Arizona
Broken Clouds
Broken Clouds
95°
Feels Like: 95°
Wind Chill: 95° Ceiling: 17000
Heat Index: 95° Visibility: 10mi
Dew Point: 52° Wind: 6mph
Humidity: 23% Direction: 220° (SW)
Pressure: 29.87in Gusts: 0mph
Raw Report DataKPHX 201951Z 22005KT 10SM FEW120 BKN170 BKN250 35/11 A2987 RMK AO2 SLP093 T03500111 $
Traffic Incident Summary
Active as of:
Severity:
Category:
InformationThere was an issue retrieving the traffic information for this location. Please try a different location or try again shortly.
Advertisements